Lacrosse, Wisconsin
Current Conditions -  °F | °C
As of 2:53 PM on Saturday 25 Oct 2014 (Local Time) from KLSE Reporting Station
Clear Clear  
Wind Chill: 68°   Ceiling: Unl
Heat Index: 68°   Visibility: 10mi
Dew Point: 33°   Wind: 12mph
Humidity: 27%   Direction: 300°WNW
Pressure: 29.98"   Gusts: NA
Location:  43.8458°N, 91.2342°W
Report Text: KLSE 251953Z 30010KT 10SM CLR 20/01 A2998 RMK AO2 SLP148 T02000006
Loading
Personal Weather Stations






























Interactive Weather Map
Tropical Storm Tracking
New forecast layout! Learn more

10-Day Weather Forecast

Advertisements
Track Severe Weather on mobile